Time;durP1;ratioP1;P1;durP2;ratioP2;P2;SDS_P1;SDS_P2;PMS_P1;PMS_P2;Temp;Humidity;BMP_temperature;BMP_pressure;BME280_temperature;BME280_humidity;BME280_pressure;Samples;Min_cycle;Max_cycle;Signal;HPM_P1;HPM_P2
2022/11/05 00:10:47;;;;;;;12.18;4.30;;;8.30;99.90;;;;;;5034055;28;20053;-84
2022/11/05 00:18:42;;;;;;;14.18;4.20;;;8.90;99.90;;;;;;5052295;28;20049;-84
2022/11/05 00:25:12;;;;;;;10.63;4.18;;;8.10;99.90;;;;;;5052694;28;20044;-84
2022/11/05 00:26:38;;;;;;;10.95;4.03;;;8.10;99.90;;;;;;5033186;28;20049;-86
2022/11/05 00:29:03;;;;;;;11.75;4.30;;;8.10;99.90;;;;;;5035250;28;20044;-86
2022/11/05 00:31:30;;;;;;;11.52;4.20;;;8.10;99.90;;;;;;5017228;28;20079;-86
2022/11/05 00:33:56;;;;;;;14.57;4.15;;;8.10;99.90;;;;;;5032741;28;20447;-86
2022/11/05 00:36:22;;;;;;;11.38;4.20;;;8.00;99.90;;;;;;5051051;28;20128;-86
2022/11/05 00:38:47;;;;;;;12.52;4.43;;;8.00;99.90;;;;;;5053802;28;20067;-86
2022/11/05 00:41:13;;;;;;;13.52;4.70;;;8.00;99.90;;;;;;5052068;28;20099;-85
2022/11/05 00:46:25;;;;;;;13.48;4.20;;;7.90;99.90;;;;;;5053406;28;20040;-86
2022/11/05 00:51:35;;;;;;;11.95;4.13;;;8.30;99.90;;;;;;5053226;28;20045;-86
2022/11/05 00:54:01;;;;;;;11.23;4.00;;;7.90;99.90;;;;;;5055031;28;20048;-86
2022/11/05 00:56:26;;;;;;;9.25;3.97;;;7.90;99.90;;;;;;5053465;28;20502;-86
2022/11/05 00:58:52;;;;;;;9.68;3.83;;;7.80;99.90;;;;;;5051716;28;20092;-86
2022/11/05 01:01:17;;;;;;;9.13;3.60;;;7.80;99.90;;;;;;5053151;28;20506;-86
2022/11/05 01:03:43;;;;;;;13.30;4.15;;;7.80;99.90;;;;;;5039416;28;20544;-86
2022/11/05 01:06:10;;;;;;;7.75;3.30;;;7.80;99.90;;;;;;5040707;28;20039;-86
2022/11/05 01:08:36;;;;;;;6.95;3.20;;;7.80;99.90;;;;;;5011488;28;20490;-86
2022/11/05 01:11:12;;;;;;;9.95;3.40;;;7.80;99.90;;;;;;5029317;28;20138;-86
2022/11/05 01:13:38;;;;;;;12.98;3.45;;;7.80;99.90;;;;;;5032376;28;20047;-86
2022/11/05 01:16:08;;;;;;;8.80;3.20;;;7.80;99.90;;;;;;5015592;28;20060;-87
2022/11/05 01:18:37;;;;;;;8.50;3.28;;;7.80;99.90;;;;;;5026742;28;20449;-87
2022/11/05 01:21:13;;;;;;;11.18;3.20;;;7.80;99.90;;;;;;5035260;28;20044;-86
2022/11/05 01:23:39;;;;;;;11.18;3.25;;;7.70;99.90;;;;;;5039464;28;20401;-86
2022/11/05 01:26:04;;;;;;;9.75;3.38;;;7.70;99.90;;;;;;5015717;28;20045;-84
2022/11/05 01:28:30;;;;;;;16.13;3.45;;;7.70;99.90;;;;;;5033266;28;20040;-84
2022/11/05 01:30:56;;;;;;;9.55;3.22;;;7.70;99.90;;;;;;5034970;28;20069;-84
2022/11/05 01:33:22;;;;;;;7.70;3.17;;;7.60;99.90;;;;;;5051573;28;20048;-86
2022/11/05 01:35:50;;;;;;;9.30;2.85;;;7.70;99.90;;;;;;5051455;28;20048;-87
2022/11/05 01:38:17;;;;;;;10.55;3.10;;;7.60;99.90;;;;;;5049584;28;20517;-86
2022/11/05 01:40:43;;;;;;;10.82;2.92;;;8.10;99.90;;;;;;5030247;28;20129;-86
2022/11/05 01:43:21;;;;;;;9.85;2.85;;;7.70;99.90;;;;;;5052200;28;20454;-87
2022/11/05 01:45:50;;;;;;;6.80;3.30;;;8.10;99.90;;;;;;5032976;28;20053;-87
2022/11/05 01:48:20;;;;;;;6.95;2.90;;;7.70;99.90;;;;;;5033108;28;20457;-84
2022/11/05 01:50:56;;;;;;;10.52;3.13;;;7.70;99.90;;;;;;5014708;28;20124;-85
2022/11/05 01:53:36;;;;;;;13.65;3.60;;;7.90;99.90;;;;;;5014719;28;20365;-85
2022/11/05 01:56:13;;;;;;;11.75;2.90;;;7.70;99.90;;;;;;5032892;28;20049;-85
2022/11/05 01:58:50;;;;;;;8.73;2.78;;;7.70;99.90;;;;;;5032771;28;20067;-84
2022/11/05 02:01:16;;;;;;;12.00;2.95;;;7.70;99.90;;;;;;5023704;28;20053;-84
2022/11/05 02:03:43;;;;;;;6.18;2.88;;;7.60;99.90;;;;;;5021126;28;20034;-84
2022/11/05 02:06:10;;;;;;;8.35;2.63;;;7.60;99.90;;;;;;5029425;28;20045;-85
2022/11/05 02:08:48;;;;;;;8.57;2.90;;;8.40;99.90;;;;;;5018443;28;20076;-85
2022/11/05 02:11:17;;;;;;;10.50;2.80;;;8.70;99.90;;;;;;5019246;28;20037;-85
2022/11/05 02:13:43;;;;;;;9.20;3.03;;;7.60;99.90;;;;;;5042688;28;20124;-85
2022/11/05 02:16:23;;;;;;;7.40;3.25;;;7.50;99.90;;;;;;5043229;28;20045;-84
2022/11/05 02:19:26;;;;;;;8.38;2.85;;;7.60;99.90;;;;;;5027380;28;20048;-84
2022/11/05 02:22:20;;;;;;;6.15;2.60;;;7.50;99.90;;;;;;5032979;28;20437;-84
2022/11/05 02:25:09;;;;;;;11.13;3.00;;;7.60;99.90;;;;;;5050791;28;20111;-84
2022/11/05 02:27:54;;;;;;;8.05;2.80;;;7.50;99.90;;;;;;5034837;28;20183;-85
2022/11/05 02:30:35;;;;;;;12.63;3.05;;;7.50;99.90;;;;;;5034885;28;20565;-84
2022/11/05 02:33:17;;;;;;;7.90;2.80;;;7.40;99.90;;;;;;5034451;28;20041;-85
2022/11/05 02:35:51;;;;;;;10.30;2.60;;;7.50;99.90;;;;;;5027585;28;20556;-85
2022/11/05 02:38:34;;;;;;;6.00;2.55;;;7.40;99.90;;;;;;5015505;28;20045;-85
2022/11/05 02:41:19;;;;;;;5.93;2.63;;;8.00;99.90;;;;;;5032904;28;20042;-85
2022/11/05 02:44:12;;;;;;;10.63;3.13;;;7.50;99.90;;;;;;4998150;28;20056;-85
2022/11/05 02:46:55;;;;;;;7.75;2.67;;;7.50;99.90;;;;;;5014690;28;20380;-85
2022/11/05 02:49:39;;;;;;;7.78;2.75;;;7.50;99.90;;;;;;5032377;28;20111;-85
2022/11/05 02:52:19;;;;;;;8.82;2.60;;;7.50;99.90;;;;;;5014425;28;20045;-85
2022/11/05 02:55:12;;;;;;;8.13;2.80;;;7.50;99.90;;;;;;5045516;28;20093;-85
2022/11/05 02:57:45;;;;;;;9.35;2.90;;;7.50;99.90;;;;;;5036957;28;20045;-85
2022/11/05 03:00:32;;;;;;;9.20;2.42;;;7.50;99.90;;;;;;5047801;28;20416;-85
2022/11/05 03:02:58;;;;;;;7.93;2.90;;;7.40;99.90;;;;;;5052109;28;20448;-86
2022/11/05 03:05:31;;;;;;;6.18;2.70;;;7.40;99.90;;;;;;5019121;28;20041;-85
2022/11/05 03:08:09;;;;;;;9.23;2.50;;;7.30;99.90;;;;;;5055250;28;20120;-85
2022/11/05 03:10:55;;;;;;;9.50;2.70;;;7.30;99.90;;;;;;5024673;28;20100;-85
2022/11/05 03:13:40;;;;;;;12.25;3.20;;;7.30;99.90;;;;;;5045045;28;20076;-85
2022/11/05 03:16:16;;;;;;;6.97;2.90;;;7.30;99.90;;;;;;5037778;28;20051;-85
2022/11/05 03:18:58;;;;;;;7.40;2.78;;;7.50;99.90;;;;;;5019711;28;20144;-85
2022/11/05 03:21:49;;;;;;;6.93;2.47;;;7.30;99.90;;;;;;5042121;28;20060;-85
2022/11/05 03:24:21;;;;;;;6.38;2.60;;;7.30;99.90;;;;;;5035242;28;20041;-85
2022/11/05 03:26:53;;;;;;;7.82;2.42;;;7.90;99.90;;;;;;5032966;28;20124;-85
2022/11/05 03:29:23;;;;;;;7.22;2.70;;;7.30;99.90;;;;;;5016431;28;20052;-85
2022/11/05 03:31:52;;;;;;;7.05;2.80;;;7.30;99.90;;;;;;5015326;28;20125;-85
2022/11/05 03:34:23;;;;;;;7.65;2.50;;;7.20;99.90;;;;;;5015831;28;20116;-85
2022/11/05 03:36:53;;;;;;;9.18;2.85;;;7.20;99.90;;;;;;5032467;28;20045;-85
2022/11/05 03:39:23;;;;;;;7.35;2.53;;;7.30;99.90;;;;;;5047570;28;20044;-85
2022/11/05 03:41:52;;;;;;;9.15;3.22;;;7.30;99.90;;;;;;5019798;28;20159;-85
2022/11/05 03:44:24;;;;;;;5.97;2.38;;;7.30;99.90;;;;;;5022124;28;20049;-85
2022/11/05 03:46:56;;;;;;;14.18;2.63;;;7.30;99.90;;;;;;5035219;28;20045;-85
2022/11/05 03:49:29;;;;;;;10.95;2.55;;;7.30;99.90;;;;;;5034916;28;20121;-85
2022/11/05 03:52:05;;;;;;;8.60;2.85;;;7.40;99.90;;;;;;5016748;28;20065;-86
2022/11/05 03:54:32;;;;;;;8.77;3.05;;;7.50;99.90;;;;;;5035347;28;20137;-85
2022/11/05 03:57:04;;;;;;;6.60;2.50;;;7.40;99.90;;;;;;5036290;28;20092;-86
2022/11/05 03:59:37;;;;;;;8.80;2.97;;;7.40;99.90;;;;;;5035241;28;20065;-85
2022/11/05 04:02:02;;;;;;;8.52;3.00;;;7.40;99.90;;;;;;5029464;28;20077;-85
2022/11/05 04:04:28;;;;;;;6.80;2.60;;;7.50;99.90;;;;;;5000149;28;20536;-85
2022/11/05 04:15:06;;;;;;;7.95;2.95;;;7.50;99.90;;;;;;5047704;28;20041;-85
2022/11/05 04:17:32;;;;;;;11.07;3.63;;;7.60;99.90;;;;;;5024338;28;20046;-85
2022/11/05 04:25:26;;;;;;;7.90;2.90;;;7.60;99.90;;;;;;5030495;28;20509;-85
2022/11/05 04:27:52;;;;;;;9.50;2.97;;;7.60;99.90;;;;;;5035505;28;20187;-85
2022/11/05 04:30:18;;;;;;;8.48;2.72;;;7.60;99.90;;;;;;5034031;28;20137;-85
2022/11/05 04:33:01;;;;;;;7.68;2.83;;;7.60;99.90;;;;;;5032813;28;20041;-85
2022/11/05 04:35:33;;;;;;;8.05;2.70;;;7.70;99.90;;;;;;5030768;28;20044;-85
2022/11/05 04:37:59;;;;;;;6.20;2.50;;;7.70;99.90;;;;;;5032691;28;20056;-85
2022/11/05 04:40:25;;;;;;;6.38;2.95;;;7.70;99.90;;;;;;5033503;28;20045;-85
2022/11/05 04:42:53;;;;;;;6.60;3.00;;;7.70;99.90;;;;;;5014518;28;20049;-85
2022/11/05 04:45:19;;;;;;;6.20;3.13;;;7.70;99.90;;;;;;5016277;28;20057;-85
2022/11/05 04:47:45;;;;;;;7.88;3.30;;;7.70;99.90;;;;;;5033474;28;20063;-85
2022/11/05 04:50:12;;;;;;;7.80;2.90;;;7.70;99.90;;;;;;5053298;28;20051;-85
2022/11/05 04:52:38;;;;;;;8.13;3.03;;;7.70;99.90;;;;;;5007290;28;20105;-85
2022/11/05 04:55:04;;;;;;;9.10;3.17;;;7.70;99.90;;;;;;5035271;28;20103;-85
2022/11/05 04:57:30;;;;;;;7.03;3.20;;;7.70;99.90;;;;;;5033306;28;20156;-85
2022/11/05 04:59:55;;;;;;;9.10;3.42;;;7.60;99.90;;;;;;5032292;28;20227;-85
2022/11/05 05:02:21;;;;;;;9.57;3.55;;;7.60;99.90;;;;;;5020160;28;20055;-84
2022/11/05 05:04:47;;;;;;;8.50;3.65;;;7.60;99.90;;;;;;5051167;28;20509;-85
2022/11/05 05:07:12;;;;;;;8.65;4.05;;;7.60;99.90;;;;;;5051521;28;20040;-86
2022/11/05 05:09:38;;;;;;;8.00;4.18;;;7.60;99.90;;;;;;5050504;28;20060;-85
2022/11/05 05:12:04;;;;;;;9.02;4.20;;;7.60;99.90;;;;;;5021510;28;20127;-85
2022/11/05 05:14:29;;;;;;;9.60;4.60;;;7.60;99.90;;;;;;5015139;28;20045;-85
2022/11/05 05:16:55;;;;;;;10.20;5.30;;;7.60;99.90;;;;;;5005978;28;20117;-85
2022/11/05 05:19:22;;;;;;;10.55;4.88;;;7.60;99.90;;;;;;5006815;28;20065;-85
2022/11/05 05:21:48;;;;;;;11.43;5.13;;;7.50;99.90;;;;;;5033373;28;20037;-85
2022/11/05 05:24:15;;;;;;;9.30;5.07;;;7.50;99.90;;;;;;5032892;28;20184;-85
2022/11/05 05:26:46;;;;;;;8.52;5.13;;;7.50;99.90;;;;;;5044561;28;20064;-85
2022/11/05 05:29:13;;;;;;;11.07;5.28;;;7.50;99.90;;;;;;5034981;28;20123;-85
2022/11/05 05:31:39;;;;;;;9.45;5.15;;;7.40;99.90;;;;;;5018391;28;20060;-85
2022/11/05 05:34:06;;;;;;;9.70;5.45;;;7.40;99.90;;;;;;5033772;28;20030;-85
2022/11/05 05:36:32;;;;;;;11.98;5.72;;;7.40;99.90;;;;;;5023437;28;20439;-84
2022/11/05 05:38:58;;;;;;;12.38;5.43;;;7.40;99.90;;;;;;5048374;28;20072;-85
2022/11/05 05:41:24;;;;;;;11.07;5.30;;;7.40;99.90;;;;;;5032036;28;20041;-84
2022/11/05 05:43:49;;;;;;;8.05;4.97;;;8.40;99.90;;;;;;5052763;28;20045;-85
2022/11/05 05:46:17;;;;;;;9.95;5.40;;;7.30;99.90;;;;;;5024959;28;20051;-85
2022/11/05 05:48:48;;;;;;;8.02;4.72;;;7.20;99.90;;;;;;4998921;28;20041;-85
2022/11/05 05:51:14;;;;;;;12.73;5.93;;;7.30;99.90;;;;;;5034818;28;20390;-85
2022/11/05 05:53:40;;;;;;;11.18;5.53;;;7.20;99.90;;;;;;5053618;28;20063;-85
2022/11/05 05:56:05;;;;;;;10.95;5.35;;;7.20;99.90;;;;;;5052930;28;20041;-85
2022/11/05 05:58:37;;;;;;;7.72;5.40;;;7.10;99.90;;;;;;5028307;28;20141;-84
2022/11/05 06:01:06;;;;;;;12.20;6.03;;;7.10;99.90;;;;;;5014842;28;20057;-85
2022/11/05 06:03:32;;;;;;;11.88;5.70;;;7.00;99.90;;;;;;5015115;28;20091;-84
2022/11/05 06:06:04;;;;;;;12.00;5.88;;;7.00;99.90;;;;;;4999589;28;20344;-85
2022/11/05 06:08:31;;;;;;;10.88;5.40;;;7.00;99.90;;;;;;5014867;28;20049;-85
2022/11/05 06:10:57;;;;;;;9.25;5.57;;;7.00;99.90;;;;;;5032514;28;20119;-85
2022/11/05 06:13:23;;;;;;;9.00;5.13;;;6.90;99.90;;;;;;5032628;28;20053;-85
2022/11/05 06:15:49;;;;;;;8.50;5.68;;;7.00;99.90;;;;;;5019143;28;20156;-85
2022/11/05 06:18:15;;;;;;;10.57;5.80;;;7.70;99.90;;;;;;5052365;28;20081;-84
2022/11/05 06:20:40;;;;;;;8.60;5.38;;;7.00;99.90;;;;;;5026839;28;20068;-84
2022/11/05 06:23:07;;;;;;;8.70;5.40;;;7.00;99.90;;;;;;5032273;28;20045;-85
2022/11/05 06:25:33;;;;;;;10.32;5.60;;;7.70;99.90;;;;;;5013732;28;20395;-85
2022/11/05 06:27:59;;;;;;;11.82;5.63;;;7.00;99.90;;;;;;5032095;28;20053;-85
2022/11/05 06:30:24;;;;;;;8.40;5.32;;;8.10;99.90;;;;;;5039358;28;20537;-82
2022/11/05 06:32:50;;;;;;;9.90;5.80;;;7.40;99.90;;;;;;5038367;28;20435;-83
2022/11/05 06:35:16;;;;;;;10.82;5.78;;;6.80;99.90;;;;;;4998047;28;20398;-83
2022/11/05 06:37:41;;;;;;;8.60;5.60;;;6.80;99.90;;;;;;4998765;28;20068;-84
2022/11/05 06:40:08;;;;;;;11.55;6.25;;;6.80;99.90;;;;;;5002744;28;20133;-83
2022/11/05 06:42:34;;;;;;;8.25;5.40;;;6.90;99.90;;;;;;5020107;28;20060;-84
2022/11/05 06:45:00;;;;;;;9.00;5.68;;;6.80;99.90;;;;;;5036353;28;20045;-84
2022/11/05 06:47:26;;;;;;;10.27;5.40;;;8.00;99.90;;;;;;5015612;28;20099;-83
2022/11/05 06:49:52;;;;;;;9.80;5.60;;;6.80;99.90;;;;;;5007768;28;20128;-83
2022/11/05 06:52:17;;;;;;;8.80;5.75;;;8.20;99.90;;;;;;5024860;28;20076;-84
2022/11/05 06:54:43;;;;;;;8.80;5.68;;;6.90;99.90;;;;;;5022498;28;20079;-83
2022/11/05 06:57:10;;;;;;;12.60;5.80;;;8.10;99.90;;;;;;5011596;28;20103;-83
2022/11/05 06:59:37;;;;;;;10.23;5.93;;;7.70;99.90;;;;;;5045115;28;20053;-84
2022/11/05 07:02:04;;;;;;;11.40;6.53;;;8.30;99.90;;;;;;5027328;28;20064;-85
2022/11/05 07:04:29;;;;;;;10.70;5.95;;;7.20;99.90;;;;;;5028289;28;20069;-83
2022/11/05 07:06:57;;;;;;;14.85;6.50;;;8.10;99.90;;;;;;5011707;28;20422;-82
2022/11/05 07:09:22;;;;;;;10.25;6.05;;;8.10;99.90;;;;;;5010207;28;20091;-83
2022/11/05 07:11:48;;;;;;;9.77;5.55;;;7.90;99.90;;;;;;5023910;28;20045;-83
2022/11/05 07:14:14;;;;;;;10.05;5.78;;;7.90;99.90;;;;;;5008767;28;20045;-82
2022/11/05 07:16:40;;;;;;;10.90;5.60;;;7.80;99.90;;;;;;5011784;28;20121;-83
2022/11/05 07:19:05;;;;;;;9.80;5.65;;;6.80;99.90;;;;;;5011441;28;20037;-85
2022/11/05 07:21:31;;;;;;;10.10;5.75;;;6.80;99.90;;;;;;5013146;28;20055;-85
2022/11/05 07:23:57;;;;;;;11.65;5.50;;;6.90;99.90;;;;;;5010010;28;20049;-83
2022/11/05 07:26:25;;;;;;;10.98;6.07;;;6.80;99.90;;;;;;5010855;28;20064;-84
2022/11/05 07:28:51;;;;;;;9.30;5.70;;;6.90;99.90;;;;;;5044976;28;20077;-82
2022/11/05 07:31:17;;;;;;;11.95;5.57;;;6.90;99.90;;;;;;5009105;28;20046;-83
2022/11/05 07:33:43;;;;;;;10.43;6.00;;;6.80;99.90;;;;;;5011560;28;20045;-82
2022/11/05 07:36:09;;;;;;;10.63;5.85;;;8.60;99.90;;;;;;5011030;28;20485;-83
2022/11/05 07:38:34;;;;;;;10.27;5.47;;;7.00;99.90;;;;;;5010289;28;20064;-82
2022/11/05 07:41:00;;;;;;;9.95;5.80;;;7.60;99.90;;;;;;5012966;28;20052;-83
2022/11/05 07:43:26;;;;;;;10.15;5.72;;;7.70;99.90;;;;;;5026560;28;20080;-83
2022/11/05 07:45:51;;;;;;;11.32;5.70;;;7.20;99.90;;;;;;5031437;28;20143;-83
2022/11/05 07:48:17;;;;;;;9.10;5.35;;;7.60;99.90;;;;;;5035235;28;20045;-83
2022/11/05 07:50:43;;;;;;;11.20;5.85;;;7.70;99.90;;;;;;4999882;28;20056;-82
2022/11/05 07:53:11;;;;;;;8.45;5.13;;;7.50;99.90;;;;;;5034552;28;20073;-83
2022/11/05 07:55:39;;;;;;;10.48;5.07;;;9.10;99.90;;;;;;5015881;28;20037;-83
2022/11/05 07:58:05;;;;;;;10.02;5.13;;;8.90;99.90;;;;;;4999836;28;20053;-83
2022/11/05 08:00:32;;;;;;;8.80;5.10;;;7.30;99.90;;;;;;5034778;28;20110;-82
2022/11/05 08:03:06;;;;;;;10.75;5.15;;;9.40;99.90;;;;;;5036734;28;20041;-82
2022/11/05 08:05:35;;;;;;;9.65;4.82;;;7.90;99.90;;;;;;5036151;28;20041;-83
2022/11/05 08:08:01;;;;;;;7.55;4.38;;;7.60;99.90;;;;;;5037490;28;20037;-83
2022/11/05 08:10:27;;;;;;;6.70;4.10;;;9.90;99.90;;;;;;5019422;28;20080;-83
2022/11/05 08:12:54;;;;;;;10.13;4.53;;;11.50;99.90;;;;;;5035983;28;20076;-83
2022/11/05 08:15:20;;;;;;;6.93;4.22;;;;;;;;;;5035643;28;20041;-82
2022/11/05 08:17:46;;;;;;;8.52;4.10;;;;;;;;;;5054803;28;20130;-82
2022/11/05 08:20:13;;;;;;;6.95;3.50;;;;;;;;;;5035418;28;20041;-82
2022/11/05 08:22:45;;;;;;;5.82;3.25;;;;;;;;;;5042126;28;20041;-82
2022/11/05 08:25:12;;;;;;;5.97;3.17;;;;;;;;;;5031557;28;20040;-82
2022/11/05 08:27:38;;;;;;;8.20;3.58;;;;;;;;;;5043868;28;20053;-83
2022/11/05 08:30:05;;;;;;;7.30;3.35;;;;;;;;;;5018874;28;20048;-84
2022/11/05 08:32:31;;;;;;;5.10;3.20;;;;;;;;;;5021281;28;20049;-84
2022/11/05 08:34:58;;;;;;;6.60;3.08;;;;;;;;;;5056205;28;20175;-82
2022/11/05 08:37:24;;;;;;;6.70;3.08;;;;;;;;;;5033535;28;20059;-84
2022/11/05 08:39:50;;;;;;;6.13;2.67;;;;;;;;;;5034609;28;20131;-84
2022/11/05 08:42:16;;;;;;;7.65;2.78;;;;;;;;;;5035655;28;20040;-84
2022/11/05 08:44:42;;;;;;;6.72;2.70;;;;;;;;;;5019109;28;20118;-84
2022/11/05 08:47:08;;;;;;;5.50;2.63;;;;;;;;;;5019401;28;20073;-85
2022/11/05 08:49:35;;;;;;;6.45;2.75;;;;;;;;;;5028191;28;20051;-85
2022/11/05 08:52:01;;;;;;;6.05;3.20;;;;;;;;;;5055965;28;20040;-84
2022/11/05 08:54:27;;;;;;;7.72;2.97;;;;;;;;;;5053398;28;20615;-84
2022/11/05 08:56:53;;;;;;;6.22;2.65;;;;;;;;;;5035802;28;20190;-84
2022/11/05 08:59:19;;;;;;;7.10;2.70;;;;;;;;;;5018631;28;20058;-84
2022/11/05 09:01:45;;;;;;;6.13;2.50;;;;;;;;;;5060293;28;20048;-84
2022/11/05 09:04:11;;;;;;;7.38;2.50;;;13.40;99.90;;;;;;5042773;28;20041;-85
2022/11/05 09:06:37;;;;;;;7.78;2.50;;;26.90;93.10;;;;;;5040643;28;20123;-87
2022/11/05 09:09:03;;;;;;;4.75;2.38;;;27.90;91.40;;;;;;5040946;28;20139;-86
2022/11/05 09:11:29;;;;;;;5.32;2.30;;;28.20;90.00;;;;;;5054768;28;20037;-86
2022/11/05 09:13:54;;;;;;;7.32;2.58;;;29.00;88.90;;;;;;5036016;28;20477;-86
2022/11/05 09:16:22;;;;;;;6.70;2.40;;;29.40;86.40;;;;;;5046279;28;20044;-87
2022/11/05 09:18:49;;;;;;;5.82;2.17;;;29.50;84.80;;;;;;5039533;28;20037;-85
2022/11/05 09:21:16;;;;;;;5.10;2.15;;;29.10;83.60;;;;;;5039590;28;20134;-88
2022/11/05 09:23:42;;;;;;;5.38;2.10;;;27.30;84.80;;;;;;5039359;28;20483;-84
2022/11/05 09:26:09;;;;;;;5.25;2.33;;;26.00;86.50;;;;;;5055536;28;20036;-87
2022/11/05 09:28:35;;;;;;;5.97;2.30;;;24.70;88.90;;;;;;5037629;28;20044;-85
2022/11/05 09:31:08;;;;;;;5.50;2.40;;;23.40;90.70;;;;;;5030038;28;20060;-84
2022/11/05 09:33:34;;;;;;;6.07;2.25;;;;;;;;;;5035226;28;20056;-85
2022/11/05 09:36:00;;;;;;;5.65;2.20;;;22.60;91.60;;;;;;5034273;28;20132;-73
2022/11/05 09:38:26;;;;;;;5.05;2.13;;;20.00;94.80;;;;;;5046033;28;20076;-84
2022/11/05 09:41:16;;;;;;;5.55;2.08;;;19.00;96.20;;;;;;5035223;28;20101;-83
2022/11/05 09:43:43;;;;;;;6.22;2.22;;;18.20;98.60;;;;;;5029397;28;20103;-85
2022/11/05 09:46:36;;;;;;;5.80;2.20;;;17.70;99.90;;;;;;5036237;28;20041;-83
2022/11/05 09:49:08;;;;;;;6.07;2.42;;;17.30;99.90;;;;;;5018496;28;20110;-84
2022/11/05 09:51:35;;;;;;;5.75;2.22;;;17.00;99.90;;;;;;5035155;28;20172;-81
2022/11/05 09:54:03;;;;;;;6.20;2.30;;;16.50;99.90;;;;;;5017867;28;20049;-78
2022/11/05 09:56:32;;;;;;;6.70;2.50;;;16.10;99.90;;;;;;5043777;28;20079;-82
2022/11/05 09:59:03;;;;;;;8.25;2.80;;;15.70;99.90;;;;;;5053984;28;20068;-82
2022/11/05 10:01:35;;;;;;;7.28;2.42;;;15.40;99.90;;;;;;5041971;28;20060;-82
2022/11/05 10:04:13;;;;;;;4.85;2.20;;;14.90;99.90;;;;;;5050448;28;20060;-82
2022/11/05 10:06:50;;;;;;;4.55;2.20;;;15.80;99.90;;;;;;5036525;28;20123;-82
2022/11/05 10:09:41;;;;;;;4.80;2.22;;;16.10;99.90;;;;;;5042806;28;20052;-81
2022/11/05 10:12:12;;;;;;;6.15;2.30;;;17.10;99.90;;;;;;5040865;28;20051;-85
2022/11/05 10:14:41;;;;;;;6.47;2.40;;;17.40;99.90;;;;;;5057450;28;20083;-83
2022/11/05 10:17:36;;;;;;;6.53;2.17;;;17.30;99.90;;;;;;5058255;28;20048;-83
2022/11/05 10:20:14;;;;;;;10.10;2.47;;;17.10;99.90;;;;;;5070717;28;20056;-84
2022/11/05 10:22:40;;;;;;;7.03;2.08;;;17.10;99.90;;;;;;5027511;28;20041;-82
2022/11/05 10:25:29;;;;;;;4.95;1.95;;;17.20;99.90;;;;;;5057823;28;20127;-81
2022/11/05 10:27:56;;;;;;;5.15;2.10;;;16.90;99.90;;;;;;5032324;28;20094;-84
2022/11/05 10:30:22;;;;;;;5.25;2.20;;;16.60;99.90;;;;;;5028974;28;20478;-82
2022/11/05 10:32:54;;;;;;;7.10;2.25;;;16.30;99.90;;;;;;5037876;28;20048;-82
2022/11/05 10:35:22;;;;;;;5.57;2.25;;;16.30;99.90;;;;;;5037775;28;20045;-82
2022/11/05 10:37:49;;;;;;;5.63;2.30;;;16.60;99.90;;;;;;5050369;28;20041;-82
2022/11/05 10:40:28;;;;;;;6.60;2.15;;;16.60;99.90;;;;;;5039027;28;20123;-82
2022/11/05 10:43:14;;;;;;;5.70;2.00;;;16.40;99.90;;;;;;5038692;28;20044;-84
2022/11/05 10:46:25;;;;;;;8.15;2.20;;;16.10;99.90;;;;;;5037658;28;20041;-82
2022/11/05 10:49:06;;;;;;;7.07;2.30;;;16.20;99.90;;;;;;5037603;28;20080;-83
2022/11/05 10:51:32;;;;;;;5.25;2.08;;;16.30;99.90;;;;;;5021192;28;20384;-82
2022/11/05 10:54:09;;;;;;;5.45;2.20;;;15.80;99.90;;;;;;5037332;28;20044;-82
2022/11/05 10:56:40;;;;;;;6.72;2.20;;;15.50;99.90;;;;;;5066192;28;20043;-82
2022/11/05 10:59:20;;;;;;;6.65;2.47;;;15.70;99.90;;;;;;5038235;28;20068;-82
2022/11/05 11:01:46;;;;;;;5.95;2.00;;;;;;;;;;5025703;28;20037;-83
2022/11/05 11:04:19;;;;;;;8.50;2.50;;;;;;;;;;5028704;28;20043;-83
2022/11/05 11:06:48;;;;;;;5.47;2.00;;;;;;;;;;5056734;28;20044;-83
2022/11/05 11:09:22;;;;;;;5.80;2.05;;;;;;;;;;5057193;28;20139;-83
2022/11/05 11:11:54;;;;;;;4.22;1.80;;;;;;;;;;5057599;28;20083;-82
2022/11/05 11:14:21;;;;;;;6.55;2.13;;;;;;;;;;5074775;28;20052;-83
2022/11/05 11:16:55;;;;;;;5.68;1.92;;;;;;;;;;5057494;28;20045;-83
2022/11/05 11:19:25;;;;;;;5.90;1.95;;;;;;;;;;5073781;28;20056;-83
2022/11/05 11:22:03;;;;;;;4.50;1.90;;;;;;;;;;5055005;28;20113;-83
2022/11/05 11:24:31;;;;;;;6.13;2.13;;;;;;;;;;5037724;28;20080;-83
2022/11/05 11:27:04;;;;;;;4.72;2.03;;;;;;;;;;5055801;28;20040;-83
2022/11/05 11:29:34;;;;;;;4.13;2.17;;;;;;;;;;5020990;28;20122;-83
2022/11/05 11:32:01;;;;;;;4.97;1.80;;;;;;;;;;5037098;28;20446;-83
2022/11/05 11:34:29;;;;;;;5.35;1.90;;;;;;;;;;5036625;28;20517;-83
2022/11/05 11:36:58;;;;;;;5.28;1.83;;;;;;;;;;5037576;28;20080;-83
2022/11/05 11:39:27;;;;;;;9.95;1.70;;;;;;;;;;5036522;28;20052;-84
2022/11/05 11:41:55;;;;;;;7.60;1.85;;;;;;;;;;5036577;28;20493;-84
2022/11/05 11:44:29;;;;;;;4.43;1.80;;;;;;;;;;5054518;28;20132;-83
2022/11/05 11:47:00;;;;;;;7.60;1.92;;;16.50;99.90;;;;;;5054565;28;20123;-84
2022/11/05 11:49:53;;;;;;;3.50;1.48;;;23.20;94.70;;;;;;5020267;28;20082;-83
2022/11/05 11:52:34;;;;;;;5.22;1.70;;;23.10;93.70;;;;;;5033486;28;20091;-83
2022/11/05 11:55:12;;;;;;;6.38;1.73;;;22.80;93.90;;;;;;5036570;28;20413;-83
2022/11/05 11:57:45;;;;;;;6.45;1.80;;;22.20;94.30;;;;;;5055225;28;20124;-83
2022/11/05 12:00:12;;;;;;;4.75;1.70;;;21.20;95.60;;;;;;5036646;28;20067;-82
2022/11/05 12:02:38;;;;;;;5.78;1.70;;;;;;;;;;5053936;28;20445;-83
2022/11/05 12:05:10;;;;;;;4.88;1.70;;;;;;;;;;5042083;28;20037;-83
2022/11/05 12:07:51;;;;;;;5.38;1.70;;;20.40;95.80;;;;;;5054386;28;20075;-83
2022/11/05 12:10:35;;;;;;;4.72;1.58;;;18.60;98.90;;;;;;5056113;28;20063;-81
2022/11/05 12:13:19;;;;;;;5.88;1.92;;;17.90;99.70;;;;;;5055943;28;20494;-82
2022/11/05 12:16:16;;;;;;;4.43;1.60;;;17.20;99.90;;;;;;5075136;28;20041;-82
2022/11/05 12:18:44;;;;;;;7.55;1.60;;;16.80;99.90;;;;;;5071834;28;20041;-78
2022/11/05 12:21:30;;;;;;;6.35;1.70;;;16.30;99.90;;;;;;5070743;28;20068;-78
2022/11/05 12:24:02;;;;;;;4.00;1.60;;;15.80;99.90;;;;;;5071287;28;20377;-78
2022/11/05 12:26:34;;;;;;;5.88;1.55;;;15.60;99.90;;;;;;5068423;28;20059;-78
2022/11/05 12:29:02;;;;;;;6.45;1.80;;;15.20;99.90;;;;;;5070536;28;20098;-78
2022/11/05 12:32:15;;;;;;;5.72;1.58;;;14.80;99.90;;;;;;5070476;28;20105;-77
2022/11/05 12:35:08;;;;;;;3.42;1.60;;;14.60;99.90;;;;;;5033716;28;20056;-76
2022/11/05 12:37:40;;;;;;;5.03;1.80;;;14.40;99.90;;;;;;5061825;28;20076;-76
2022/11/05 12:40:17;;;;;;;3.20;1.48;;;14.20;99.90;;;;;;5042693;28;20044;-77
2022/11/05 12:43:21;;;;;;;3.95;1.60;;;14.00;99.90;;;;;;5042647;28;20044;-77
2022/11/05 12:46:09;;;;;;;4.05;1.30;;;13.80;99.90;;;;;;5026993;28;20049;-77
2022/11/05 12:48:44;;;;;;;6.57;1.30;;;13.80;99.90;;;;;;5043022;28;20056;-77
2022/11/05 12:51:28;;;;;;;4.67;1.57;;;13.60;99.90;;;;;;5038432;28;20416;-78
2022/11/05 12:54:16;;;;;;;3.88;1.20;;;13.60;99.90;;;;;;5041412;28;20063;-80
2022/11/05 12:56:48;;;;;;;3.42;1.50;;;13.60;99.90;;;;;;5025043;28;20454;-80
2022/11/05 12:59:30;;;;;;;5.07;1.65;;;13.50;99.90;;;;;;5024706;28;20514;-79
2022/11/05 13:02:13;;;;;;;6.03;1.60;;;13.40;99.90;;;;;;5029486;28;20052;-78
2022/11/05 13:04:57;;;;;;;3.47;1.58;;;13.40;99.90;;;;;;5043119;28;20120;-79
2022/11/05 13:07:30;;;;;;;3.00;1.33;;;13.30;99.90;;;;;;5058672;28;20135;-79
2022/11/05 13:10:18;;;;;;;2.88;1.50;;;13.20;99.90;;;;;;5058022;28;20048;-79
2022/11/05 13:12:48;;;;;;;5.72;1.70;;;13.20;99.90;;;;;;5058845;28;20366;-79
2022/11/05 13:15:19;;;;;;;4.07;1.48;;;13.00;99.90;;;;;;5058127;28;20124;-79
2022/11/05 13:18:01;;;;;;;3.35;1.33;;;12.90;99.90;;;;;;5044782;28;20036;-86
2022/11/05 13:20:31;;;;;;;2.88;1.30;;;12.80;99.90;;;;;;5025725;28;20059;-85
2022/11/05 13:23:12;;;;;;;3.00;1.40;;;13.40;99.90;;;;;;5058429;28;20041;-84
2022/11/05 13:25:45;;;;;;;4.47;1.33;;;13.60;99.90;;;;;;5065667;28;20083;-87
2022/11/05 13:28:40;;;;;;;3.17;1.45;;;12.60;99.90;;;;;;5072251;28;20106;-86
2022/11/05 13:31:12;;;;;;;3.20;1.33;;;12.60;99.90;;;;;;5023679;28;20472;-84
2022/11/05 13:33:43;;;;;;;2.63;1.40;;;12.60;99.90;;;;;;5038340;28;20362;-84
2022/11/05 13:39:36;;;;;;;5.05;1.90;;;13.80;99.90;;;;;;5071230;28;20497;-84
2022/11/05 13:42:11;;;;;;;3.72;1.50;;;12.70;99.90;;;;;;5072490;28;20058;-84
2022/11/05 13:45:00;;;;;;;3.83;1.50;;;12.70;99.90;;;;;;5037990;28;20051;-84
2022/11/05 13:47:44;;;;;;;4.82;1.48;;;12.80;99.90;;;;;;5037962;28;20109;-84
2022/11/05 13:50:22;;;;;;;3.72;1.50;;;12.60;99.90;;;;;;5052733;28;20040;-84
2022/11/05 13:53:26;;;;;;;4.50;1.63;;;12.60;99.90;;;;;;5052954;28;20075;-83
2022/11/05 13:56:08;;;;;;;4.85;1.63;;;12.60;99.90;;;;;;5054494;28;20486;-84
2022/11/05 13:58:40;;;;;;;5.45;1.83;;;12.50;99.90;;;;;;5071510;28;20447;-84
2022/11/05 14:01:18;;;;;;;5.43;1.90;;;13.20;99.90;;;;;;5034990;28;20468;-84
2022/11/05 14:03:48;;;;;;;5.22;2.47;;;12.50;99.90;;;;;;5051093;28;20735;-84
2022/11/05 14:06:21;;;;;;;6.47;2.42;;;12.50;99.90;;;;;;5017293;28;20076;-84